Time;durP1;ratioP1;P1;durP2;ratioP2;P2;SDS_P1;SDS_P2;PMS_P1;PMS_P2;Temp;Humidity;BMP_temperature;BMP_pressure;BME280_temperature;BME280_humidity;BME280_pressure;Samples;Min_cycle;Max_cycle;Signal;HPM_P1;HPM_P2
2023/08/09 00:01:17;;;;;;;107.50;100.97;;;11.50;99.90;;;;;;4989032;28;20038;-82
2023/08/09 00:03:43;;;;;;;90.85;85.47;;;11.40;99.90;;;;;;4988327;28;20042;-82
2023/08/09 00:06:09;;;;;;;100.60;94.80;;;11.40;99.90;;;;;;4988052;28;20401;-82
2023/08/09 00:08:34;;;;;;;101.15;94.95;;;11.40;99.90;;;;;;4988425;28;20050;-82
2023/08/09 00:11:01;;;;;;;106.68;100.18;;;11.40;99.90;;;;;;4988111;28;20046;-82
2023/08/09 00:13:26;;;;;;;112.13;105.57;;;11.40;99.90;;;;;;4988204;28;20122;-82
2023/08/09 00:15:52;;;;;;;133.73;125.35;;;11.40;99.90;;;;;;4988164;28;20168;-82
2023/08/09 00:18:18;;;;;;;106.72;100.30;;;11.30;99.90;;;;;;4988159;28;20039;-82
2023/08/09 00:20:44;;;;;;;93.35;87.65;;;11.30;99.90;;;;;;4989009;28;20560;-81
2023/08/09 00:23:11;;;;;;;96.78;90.88;;;11.30;99.90;;;;;;5007271;28;20104;-82
2023/08/09 00:25:38;;;;;;;103.53;97.55;;;11.30;99.90;;;;;;4991521;28;20455;-82
2023/08/09 00:28:04;;;;;;;104.93;98.68;;;11.20;99.90;;;;;;5007713;28;20084;-82
2023/08/09 00:30:30;;;;;;;98.25;92.20;;;11.20;99.90;;;;;;5007815;28;20096;-82
2023/08/09 00:32:56;;;;;;;103.53;97.35;;;11.10;99.90;;;;;;5009150;28;20485;-82
2023/08/09 00:35:22;;;;;;;113.45;106.75;;;11.10;99.90;;;;;;5007245;28;20042;-82
2023/08/09 00:37:47;;;;;;;97.63;91.85;;;11.10;99.90;;;;;;5007617;28;20045;-82
2023/08/09 00:40:13;;;;;;;106.30;100.18;;;11.10;99.90;;;;;;5007735;28;20428;-82
2023/08/09 00:42:40;;;;;;;99.35;92.97;;;11.00;99.90;;;;;;5007905;28;20481;-82
2023/08/09 00:45:07;;;;;;;127.15;119.60;;;11.00;99.90;;;;;;5011628;28;20045;-82
2023/08/09 00:47:34;;;;;;;106.22;100.10;;;11.00;99.90;;;;;;5011672;28;20045;-82
2023/08/09 00:50:01;;;;;;;119.35;112.28;;;11.00;99.90;;;;;;5012473;28;20095;-82
2023/08/09 00:52:27;;;;;;;114.40;107.88;;;11.00;99.90;;;;;;4994195;28;20092;-82
2023/08/09 00:54:53;;;;;;;123.30;116.07;;;11.00;99.90;;;;;;4992153;28;20379;-82
2023/08/09 00:57:19;;;;;;;135.23;127.53;;;11.00;99.90;;;;;;4992004;28;20038;-82
2023/08/09 00:59:45;;;;;;;136.55;128.30;;;11.00;99.90;;;;;;4991788;28;20121;-82
2023/08/09 01:02:11;;;;;;;108.38;101.68;;;11.00;99.90;;;;;;4992154;28;20132;-81
2023/08/09 01:04:38;;;;;;;115.68;108.80;;;11.00;99.90;;;;;;4991649;28;20586;-82
2023/08/09 01:07:26;;;;;;;129.60;122.07;;;11.00;99.90;;;;;;5005023;28;20129;-82
2023/08/09 01:10:15;;;;;;;133.23;124.97;;;10.90;99.90;;;;;;4992054;28;20201;-82
2023/08/09 01:12:46;;;;;;;123.47;116.28;;;10.90;99.90;;;;;;4991563;28;20053;-82
2023/08/09 01:15:15;;;;;;;131.07;123.45;;;10.90;99.90;;;;;;4991592;28;20073;-82
2023/08/09 01:17:41;;;;;;;117.05;110.28;;;10.80;99.90;;;;;;4992494;28;20517;-82
2023/08/09 01:20:11;;;;;;;125.15;117.78;;;10.80;99.90;;;;;;4991255;28;20053;-82
2023/08/09 01:23:01;;;;;;;118.95;111.97;;;10.80;99.90;;;;;;5009894;28;20547;-82
2023/08/09 01:25:32;;;;;;;132.98;124.82;;;10.80;99.90;;;;;;5010992;28;20046;-82
2023/08/09 01:27:59;;;;;;;142.38;134.10;;;10.70;99.90;;;;;;5012089;28;20396;-82
2023/08/09 01:30:24;;;;;;;134.15;125.97;;;11.00;99.90;;;;;;5010902;28;20030;-82
2023/08/09 01:32:51;;;;;;;142.80;134.15;;;10.70;99.90;;;;;;5010189;28;20053;-82
2023/08/09 01:35:17;;;;;;;143.38;134.60;;;10.70;99.90;;;;;;5012026;28;20038;-82
2023/08/09 01:37:49;;;;;;;145.02;136.23;;;10.70;99.90;;;;;;5010805;28;20508;-82
2023/08/09 01:40:17;;;;;;;140.07;131.90;;;10.60;99.90;;;;;;5012304;28;20050;-82
2023/08/09 01:42:43;;;;;;;136.15;127.68;;;10.60;99.90;;;;;;5010975;28;20440;-82
2023/08/09 01:45:11;;;;;;;171.88;161.25;;;10.60;99.90;;;;;;5010456;28;20496;-82
2023/08/09 01:47:39;;;;;;;153.52;144.38;;;10.60;99.90;;;;;;5011305;28;20124;-82
2023/08/09 01:50:21;;;;;;;144.13;135.20;;;10.60;99.90;;;;;;5008364;28;20046;-83
2023/08/09 01:52:47;;;;;;;145.10;136.38;;;10.60;99.90;;;;;;4991922;28;20543;-82
2023/08/09 01:55:19;;;;;;;155.35;146.02;;;11.00;99.90;;;;;;4989648;28;20085;-82
2023/08/09 01:57:46;;;;;;;196.20;183.60;;;10.60;99.90;;;;;;4974267;28;20508;-82
2023/08/09 02:00:16;;;;;;;152.32;143.20;;;10.60;99.90;;;;;;4990971;28;20038;-82
2023/08/09 02:02:42;;;;;;;152.30;143.27;;;10.60;99.90;;;;;;4990052;28;20038;-82
2023/08/09 02:05:09;;;;;;;173.52;162.85;;;10.60;99.90;;;;;;4991905;28;20046;-82
2023/08/09 02:07:34;;;;;;;151.98;142.82;;;10.60;99.90;;;;;;4992180;28;20038;-82
2023/08/09 02:10:00;;;;;;;157.95;148.73;;;10.50;99.90;;;;;;4990323;28;20068;-82
2023/08/09 02:12:26;;;;;;;160.27;150.23;;;10.50;99.90;;;;;;4991698;28;20038;-83
2023/08/09 02:14:51;;;;;;;166.95;156.98;;;10.50;99.90;;;;;;4990155;28;20609;-82
2023/08/09 02:17:17;;;;;;;152.23;143.15;;;11.00;99.90;;;;;;4991089;28;20073;-82
2023/08/09 02:19:43;;;;;;;163.50;152.88;;;10.50;99.90;;;;;;4993862;28;20125;-82
2023/08/09 02:22:10;;;;;;;178.43;166.80;;;10.70;99.90;;;;;;5010183;28;20489;-82
2023/08/09 02:24:36;;;;;;;168.27;157.98;;;10.50;99.90;;;;;;5010944;28;20116;-82
2023/08/09 02:27:02;;;;;;;154.40;145.10;;;10.50;99.90;;;;;;5011407;28;20447;-82
2023/08/09 02:29:28;;;;;;;158.82;148.88;;;10.40;99.90;;;;;;5009649;28;20038;-82
2023/08/09 02:31:54;;;;;;;159.73;149.98;;;10.40;99.90;;;;;;5010716;28;20038;-82
2023/08/09 02:34:20;;;;;;;158.77;149.02;;;10.40;99.90;;;;;;5007932;28;20057;-82
2023/08/09 02:36:46;;;;;;;143.77;135.05;;;10.40;99.90;;;;;;4989973;28;20041;-82
2023/08/09 02:39:12;;;;;;;159.32;149.30;;;10.30;99.90;;;;;;4991619;28;20520;-82
2023/08/09 02:41:41;;;;;;;168.07;157.55;;;10.40;99.90;;;;;;4991318;28;20082;-81
2023/08/09 02:44:07;;;;;;;168.35;158.02;;;10.40;99.90;;;;;;4973463;28;20046;-82
2023/08/09 02:46:33;;;;;;;153.73;144.23;;;10.30;99.90;;;;;;4989242;28;20072;-82
2023/08/09 02:48:59;;;;;;;158.00;148.25;;;10.30;99.90;;;;;;4991221;28;20035;-82
2023/08/09 02:51:24;;;;;;;176.27;165.13;;;10.30;99.90;;;;;;5009393;28;20042;-82
2023/08/09 02:54:03;;;;;;;154.52;145.27;;;10.50;99.90;;;;;;5010626;28;20044;-82
2023/08/09 02:56:30;;;;;;;168.70;158.38;;;10.30;99.90;;;;;;5010485;28;20057;-82
2023/08/09 02:58:57;;;;;;;192.95;181.13;;;10.20;99.90;;;;;;5010154;28;20038;-82
2023/08/09 03:01:24;;;;;;;143.52;134.95;;;10.20;99.90;;;;;;4992786;28;20302;-82
2023/08/09 03:03:50;;;;;;;160.77;151.10;;;10.20;99.90;;;;;;5008698;28;20046;-82
2023/08/09 03:06:17;;;;;;;166.73;156.45;;;10.20;99.90;;;;;;5009082;28;20042;-82
2023/08/09 03:08:47;;;;;;;154.77;145.48;;;10.20;99.90;;;;;;5009271;28;20344;-82
2023/08/09 03:11:13;;;;;;;167.27;157.38;;;10.20;99.90;;;;;;5008919;28;20033;-82
2023/08/09 03:13:39;;;;;;;158.60;148.70;;;10.30;99.90;;;;;;5009782;28;20053;-82
2023/08/09 03:16:05;;;;;;;190.98;179.38;;;10.40;99.90;;;;;;5008787;28;20038;-82
2023/08/09 03:18:31;;;;;;;170.32;159.85;;;10.10;99.90;;;;;;5008169;28;20038;-82
2023/08/09 03:20:57;;;;;;;192.35;180.75;;;10.10;99.90;;;;;;4989078;28;20058;-82
2023/08/09 03:23:23;;;;;;;174.52;164.00;;;10.10;99.90;;;;;;4989258;28;20425;-82
2023/08/09 03:25:48;;;;;;;182.10;170.32;;;10.10;99.90;;;;;;4989220;28;20034;-81
2023/08/09 03:28:14;;;;;;;153.85;144.40;;;10.00;99.90;;;;;;4989697;28;20493;-82
2023/08/09 03:30:40;;;;;;;202.50;189.73;;;10.00;99.90;;;;;;4989119;28;20588;-82
2023/08/09 03:33:06;;;;;;;167.75;157.70;;;10.00;99.90;;;;;;4989105;28;20038;-82
2023/08/09 03:35:31;;;;;;;183.65;172.25;;;10.00;99.90;;;;;;4988944;28;20131;-82
2023/08/09 03:37:58;;;;;;;176.93;165.93;;;10.20;99.90;;;;;;4988769;28;20046;-82
2023/08/09 03:40:24;;;;;;;204.55;192.02;;;10.70;99.90;;;;;;4990132;28;20054;-82
2023/08/09 03:42:49;;;;;;;172.85;162.07;;;10.00;99.90;;;;;;4989771;28;20373;-81
2023/08/09 03:45:17;;;;;;;177.85;166.43;;;10.60;99.90;;;;;;4988757;28;20042;-82
2023/08/09 03:47:43;;;;;;;184.45;173.18;;;9.90;99.90;;;;;;4988581;28;20050;-82
2023/08/09 03:50:10;;;;;;;187.63;176.10;;;9.90;99.90;;;;;;5004904;28;20348;-82
2023/08/09 03:52:36;;;;;;;193.30;181.38;;;9.90;99.90;;;;;;5008103;28;20041;-82
2023/08/09 03:55:02;;;;;;;190.80;178.95;;;9.90;99.90;;;;;;5008133;28;20042;-82
2023/08/09 03:57:27;;;;;;;172.73;162.23;;;9.90;99.90;;;;;;4991294;28;20034;-82
2023/08/09 03:59:54;;;;;;;169.43;159.18;;;9.90;99.90;;;;;;5008124;28;20069;-82
2023/08/09 04:02:20;;;;;;;185.85;174.45;;;9.90;99.90;;;;;;4991874;28;20054;-82
2023/08/09 04:04:47;;;;;;;172.32;161.65;;;9.90;99.90;;;;;;5009096;28;20067;-82
2023/08/09 04:07:13;;;;;;;183.80;171.98;;;9.80;99.90;;;;;;5008023;28;20096;-82
2023/08/09 04:09:38;;;;;;;186.38;174.57;;;10.00;99.90;;;;;;5009164;28;20443;-82
2023/08/09 04:12:05;;;;;;;154.80;145.30;;;9.80;99.90;;;;;;5007042;28;20046;-82
2023/08/09 04:14:30;;;;;;;179.65;168.18;;;9.80;99.90;;;;;;5007602;28;20493;-82
2023/08/09 04:16:59;;;;;;;172.38;161.80;;;9.90;99.90;;;;;;5007569;28;20052;-82
2023/08/09 04:19:26;;;;;;;168.73;158.02;;;9.90;99.90;;;;;;4990672;28;20046;-82
2023/08/09 04:21:53;;;;;;;155.98;146.38;;;9.90;99.90;;;;;;4968961;28;20045;-83
2023/08/09 04:24:19;;;;;;;174.88;163.65;;;9.90;99.90;;;;;;4972900;28;20069;-82
2023/08/09 04:26:45;;;;;;;168.68;157.95;;;10.00;99.90;;;;;;4970209;28;20129;-82
2023/08/09 04:29:10;;;;;;;152.98;143.25;;;10.00;99.90;;;;;;4979127;28;20126;-82
2023/08/09 04:31:36;;;;;;;168.75;157.95;;;10.00;99.90;;;;;;4969954;28;20078;-83
2023/08/09 04:34:02;;;;;;;180.93;169.18;;;10.00;99.90;;;;;;4969026;28;20047;-82
2023/08/09 04:36:28;;;;;;;214.70;201.13;;;9.60;99.90;;;;;;4970084;28;20088;-82
2023/08/09 04:38:54;;;;;;;144.65;135.80;;;10.10;99.90;;;;;;4968668;28;20042;-82
2023/08/09 04:41:20;;;;;;;176.45;165.30;;;10.10;99.90;;;;;;4969334;28;20478;-82
2023/08/09 04:43:46;;;;;;;160.20;149.90;;;10.10;99.90;;;;;;4991485;28;20527;-82
2023/08/09 04:46:12;;;;;;;147.48;138.57;;;10.70;99.90;;;;;;5008944;28;20386;-82
2023/08/09 04:48:40;;;;;;;153.15;143.48;;;10.30;99.90;;;;;;5007773;28;20049;-82
2023/08/09 04:51:07;;;;;;;167.60;157.15;;;10.30;99.90;;;;;;5008016;28;20132;-82
2023/08/09 04:53:32;;;;;;;177.52;166.27;;;9.90;99.90;;;;;;5008115;28;20041;-82
2023/08/09 04:55:58;;;;;;;157.02;147.45;;;10.40;99.90;;;;;;4996717;28;20037;-83
2023/08/09 04:58:24;;;;;;;156.98;147.23;;;10.00;99.90;;;;;;5004834;28;20504;-82
2023/08/09 05:00:50;;;;;;;184.77;173.15;;;10.50;99.90;;;;;;5008828;28;20042;-83
2023/08/09 05:03:15;;;;;;;184.10;172.68;;;10.50;99.90;;;;;;5008746;28;20042;-83
2023/08/09 05:05:41;;;;;;;159.82;149.93;;;11.00;99.90;;;;;;5007332;28;20554;-84
2023/08/09 05:08:07;;;;;;;180.63;169.63;;;10.60;99.90;;;;;;5008430;28;20571;-83
2023/08/09 05:10:34;;;;;;;175.75;164.25;;;10.70;99.90;;;;;;5008112;28;20089;-83
2023/08/09 05:13:00;;;;;;;173.40;162.85;;;10.70;99.90;;;;;;5009107;28;20447;-82
2023/08/09 05:15:26;;;;;;;160.45;150.77;;;10.80;99.90;;;;;;5007485;28;20049;-82
2023/08/09 05:17:54;;;;;;;173.00;162.57;;;10.90;99.90;;;;;;5009392;28;20033;-83
2023/08/09 05:20:22;;;;;;;157.93;148.07;;;10.90;99.90;;;;;;5009255;28;20092;-83
2023/08/09 05:22:48;;;;;;;172.70;162.25;;;11.50;99.90;;;;;;5007913;28;20069;-83
2023/08/09 05:25:14;;;;;;;139.90;131.40;;;11.10;99.90;;;;;;4997392;28;20042;-84
2023/08/09 05:27:40;;;;;;;137.73;129.80;;;11.10;99.90;;;;;;4990388;28;20042;-86
2023/08/09 05:30:06;;;;;;;130.57;122.68;;;11.20;99.90;;;;;;4994840;28;20113;-86
2023/08/09 05:32:32;;;;;;;113.28;106.50;;;11.30;99.90;;;;;;4996517;28;20147;-86
2023/08/09 05:34:58;;;;;;;130.48;122.72;;;11.40;99.90;;;;;;4980605;28;20042;-87
2023/08/09 05:37:24;;;;;;;136.88;128.77;;;11.60;99.90;;;;;;4976589;28;20042;-84
2023/08/09 05:39:49;;;;;;;114.45;107.60;;;11.70;99.90;;;;;;4992136;28;20039;-84
2023/08/09 05:42:15;;;;;;;127.38;119.97;;;12.50;99.90;;;;;;4992681;28;20106;-85
2023/08/09 05:44:41;;;;;;;90.22;84.78;;;12.10;99.90;;;;;;4977861;28;20536;-84
2023/08/09 05:47:07;;;;;;;58.08;54.45;;;13.20;99.90;;;;;;4990442;28;20126;-82
2023/08/09 05:49:33;;;;;;;46.10;42.85;;;14.00;99.90;;;;;;4990503;28;20507;-81
2023/08/09 05:51:59;;;;;;;11.55;10.52;;;15.70;99.90;;;;;;4993356;28;20050;-84
2023/08/09 05:54:24;;;;;;;26.55;24.92;;;17.20;99.90;;;;;;4996276;28;20110;-85
2023/08/09 05:56:50;;;;;;;14.30;13.05;;;18.70;99.90;;;;;;4976669;28;20042;-84
2023/08/09 05:59:16;;;;;;;16.40;15.10;;;19.70;99.90;;;;;;4992080;28;20121;-85
2023/08/09 06:01:42;;;;;;;6.13;5.22;;;20.60;99.90;;;;;;4991994;28;20577;-84
2023/08/09 06:04:08;;;;;;;6.38;4.70;;;21.50;99.90;;;;;;4992283;28;20046;-84
2023/08/09 06:06:33;;;;;;;7.10;4.50;;;22.00;99.90;;;;;;4992022;28;20046;-86
2023/08/09 06:08:59;;;;;;;8.60;7.68;;;22.50;99.90;;;;;;4995611;28;20119;-83
2023/08/09 06:11:26;;;;;;;27.52;25.85;;;23.00;99.90;;;;;;5011858;28;20549;-80
2023/08/09 06:13:51;;;;;;;64.07;60.40;;;23.60;99.90;;;;;;5009353;28;20384;-83
2023/08/09 06:16:17;;;;;;;346.77;325.63;;;24.00;99.90;;;;;;5010702;28;20042;-79
2023/08/09 06:18:43;;;;;;;415.92;388.52;;;24.30;99.90;;;;;;5009069;28;20052;-81
2023/08/09 06:21:08;;;;;;;1999.90;999.90;;;24.70;99.90;;;;;;5010830;28;20053;-82
2023/08/09 06:23:37;;;;;;;1999.90;806.22;;;25.00;99.90;;;;;;5008994;28;20069;-83
2023/08/09 06:26:03;;;;;;;1999.90;727.60;;;25.40;99.90;;;;;;4993010;28;20108;-83
2023/08/09 06:28:28;;;;;;;1727.97;350.92;;;25.60;99.90;;;;;;5009067;28;20042;-82
2023/08/09 06:30:54;;;;;;;1999.90;999.90;;;25.80;99.00;;;;;;5009431;28;20065;-85
2023/08/09 06:33:19;;;;;;;1999.90;999.90;;;26.20;98.80;;;;;;5010458;28;20100;-83
2023/08/09 06:35:45;;;;;;;1999.90;999.90;;;26.30;98.90;;;;;;5011295;28;20034;-85
2023/08/09 06:38:11;;;;;;;1999.90;999.90;;;26.40;97.00;;;;;;5008089;28;20448;-83
2023/08/09 06:40:39;;;;;;;1999.90;999.90;;;26.60;98.30;;;;;;4995474;28;20046;-83
2023/08/09 06:43:04;;;;;;;1999.90;999.90;;;26.60;98.70;;;;;;4992244;28;20050;-87
2023/08/09 06:45:30;;;;;;;1999.90;999.90;;;27.00;97.70;;;;;;4994984;28;20038;-86
2023/08/09 06:47:56;;;;;;;1999.90;999.90;;;27.30;97.80;;;;;;4975614;28;20034;-86
2023/08/09 06:50:23;;;;;;;1999.90;999.90;;;27.30;97.20;;;;;;4991594;28;20046;-85
2023/08/09 06:52:49;;;;;;;1999.90;999.90;;;27.80;96.70;;;;;;4989186;28;20038;-81
2023/08/09 06:55:15;;;;;;;1999.90;999.90;;;27.80;97.10;;;;;;5003413;28;20099;-81
2023/08/09 06:57:40;;;;;;;1999.90;999.90;;;28.00;96.60;;;;;;4988837;28;20477;-82
2023/08/09 07:00:15;;;;;;;1999.90;999.90;;;27.20;96.70;;;;;;4988676;28;20050;-83
2023/08/09 07:02:41;;;;;;;1999.90;999.90;;;26.20;97.00;;;;;;4988741;28;20700;-83
2023/08/09 07:05:15;;;;;;;1999.90;999.90;;;25.50;98.00;;;;;;4988779;28;20045;-83
2023/08/09 07:07:47;;;;;;;1999.90;999.90;;;25.50;98.50;;;;;;4988875;28;20034;-83
2023/08/09 07:10:15;;;;;;;1999.90;999.90;;;25.60;97.70;;;;;;4972523;28;20485;-82
2023/08/09 07:12:41;;;;;;;1999.90;999.90;;;26.10;98.20;;;;;;4989078;28;20034;-85
2023/08/09 07:15:08;;;;;;;1999.90;999.90;;;26.40;97.20;;;;;;4990423;28;20484;-84
2023/08/09 07:17:37;;;;;;;1999.90;999.90;;;26.80;97.80;;;;;;4991895;28;20050;-84
2023/08/09 07:20:07;;;;;;;1999.90;999.90;;;27.10;96.80;;;;;;4989037;28;20062;-83
2023/08/09 07:22:34;;;;;;;1999.90;999.90;;;27.30;97.20;;;;;;4989433;28;20097;-81
2023/08/09 07:25:00;;;;;;;1999.90;999.90;;;27.60;97.10;;;;;;5005391;28;20585;-83
2023/08/09 07:27:26;;;;;;;1999.90;999.90;;;27.80;97.00;;;;;;4989908;28;20046;-82
2023/08/09 07:29:53;;;;;;;1999.90;999.90;;;27.80;95.80;;;;;;4989499;28;20401;-80
2023/08/09 07:32:19;;;;;;;1999.90;999.90;;;28.00;96.00;;;;;;4987788;28;20168;-82
2023/08/09 07:34:44;;;;;;;1999.90;999.90;;;28.20;96.00;;;;;;4988109;28;20491;-82
2023/08/09 07:37:10;;;;;;;1999.90;999.90;;;28.30;95.40;;;;;;4988806;28;20097;-81
2023/08/09 07:39:36;;;;;;;1999.90;999.90;;;27.80;95.40;;;;;;5004024;28;20034;-80
2023/08/09 07:42:02;;;;;;;1999.90;999.90;;;28.00;95.50;;;;;;5007702;28;20045;-81
2023/08/09 07:44:28;;;;;;;1999.90;999.90;;;28.10;95.00;;;;;;5010721;28;20117;-82
2023/08/09 07:46:54;;;;;;;1999.90;999.90;;;28.10;95.40;;;;;;5010741;28;20072;-82
2023/08/09 07:49:19;;;;;;;1999.90;999.90;;;28.30;95.70;;;;;;4990870;28;20038;-78
2023/08/09 07:51:45;;;;;;;1999.90;999.90;;;28.40;95.30;;;;;;5008749;28;20131;-78
2023/08/09 07:54:11;;;;;;;1999.90;999.90;;;28.70;95.40;;;;;;4995767;28;20049;-78
2023/08/09 07:56:37;;;;;;;1999.90;999.90;;;28.80;95.10;;;;;;5003062;28;20030;-78
2023/08/09 07:59:02;;;;;;;1999.90;999.90;;;29.00;95.10;;;;;;5006887;28;20403;-79
2023/08/09 08:01:28;;;;;;;1999.90;999.90;;;28.80;94.90;;;;;;5006818;28;20224;-79
2023/08/09 08:03:54;;;;;;;1999.90;999.90;;;28.60;94.80;;;;;;5006496;28;20034;-79
2023/08/09 08:06:20;;;;;;;1999.90;999.90;;;28.70;94.60;;;;;;5012435;28;20068;-85
2023/08/09 08:08:46;;;;;;;1999.90;999.90;;;28.70;94.30;;;;;;5020059;28;20046;-79
2023/08/09 08:11:11;;;;;;;1999.90;999.90;;;28.20;93.50;;;;;;5003525;28;20515;-81
2023/08/09 08:13:37;;;;;;;1999.90;999.90;;;27.90;93.40;;;;;;4987075;28;20034;-80
2023/08/09 08:16:04;;;;;;;1999.90;999.90;;;28.00;93.10;;;;;;4988808;28;20038;-80
2023/08/09 08:18:30;;;;;;;1999.90;999.90;;;27.70;94.10;;;;;;4970714;28;20464;-80
2023/08/09 08:20:57;;;;;;;1999.90;999.90;;;28.00;94.20;;;;;;5003742;28;20089;-81
2023/08/09 08:23:23;;;;;;;1999.90;999.90;;;28.00;92.60;;;;;;5006948;28;20044;-80
2023/08/09 08:25:49;;;;;;;1999.90;999.90;;;28.30;94.30;;;;;;5008676;28;20440;-81
2023/08/09 08:28:15;;;;;;;1999.90;999.90;;;28.50;94.20;;;;;;5006688;28;20042;-80
2023/08/09 08:30:41;;;;;;;1999.90;999.90;;;28.40;94.60;;;;;;5006478;28;20443;-81
2023/08/09 08:33:08;;;;;;;1999.90;999.90;;;28.30;93.30;;;;;;5007188;28;20041;-81
2023/08/09 08:35:44;;;;;;;1999.90;999.90;;;27.30;93.90;;;;;;5008763;28;20069;-81
2023/08/09 08:38:10;;;;;;;1999.90;999.90;;;25.90;94.00;;;;;;4968894;28;20099;-82
2023/08/09 08:40:38;;;;;;;1999.90;999.90;;;25.70;94.80;;;;;;4971949;28;20382;-82
2023/08/09 08:43:08;;;;;;;1999.90;999.90;;;25.60;94.90;;;;;;4953361;28;20042;-83
2023/08/09 08:45:38;;;;;;;1999.90;999.90;;;25.40;94.80;;;;;;4969692;28;20031;-82
2023/08/09 08:48:09;;;;;;;1999.90;999.90;;;24.90;93.70;;;;;;4969888;28;20477;-83
2023/08/09 08:50:37;;;;;;;1999.90;999.90;;;24.70;94.10;;;;;;4995036;28;20381;-84
2023/08/09 08:53:04;;;;;;;1999.90;999.90;;;24.20;94.20;;;;;;5010947;28;20038;-85
2023/08/09 08:55:30;;;;;;;1999.90;999.90;;;24.00;94.60;;;;;;5011169;28;20034;-79
2023/08/09 08:57:56;;;;;;;1999.90;999.90;;;23.60;94.00;;;;;;5007298;28;20038;-84
2023/08/09 09:00:23;;;;;;;1999.90;999.90;;;23.50;95.80;;;;;;4992232;28;20124;-84
2023/08/09 09:02:49;;;;;;;1999.90;999.90;;;23.60;95.00;;;;;;4991925;28;20296;-84
2023/08/09 09:05:19;;;;;;;1999.90;999.90;;;23.30;93.90;;;;;;5010288;28;20041;-82
2023/08/09 09:07:49;;;;;;;1999.90;999.90;;;22.70;94.70;;;;;;5011500;28;20042;-81
2023/08/09 09:10:15;;;;;;;1999.90;999.90;;;22.40;96.20;;;;;;4995971;28;20041;-81
2023/08/09 09:12:41;;;;;;;1999.90;999.90;;;22.00;96.30;;;;;;5012537;28;20074;-82
2023/08/09 09:15:08;;;;;;;1999.90;999.90;;;21.90;96.70;;;;;;5004344;28;20033;-83
2023/08/09 09:17:41;;;;;;;1999.90;999.90;;;21.70;97.30;;;;;;5013970;28;20092;-84
2023/08/09 09:20:13;;;;;;;1999.90;999.90;;;21.60;96.20;;;;;;4975961;28;20125;-83
2023/08/09 09:22:39;;;;;;;1999.90;999.90;;;21.80;97.50;;;;;;4993451;28;20038;-80
2023/08/09 09:25:12;;;;;;;1999.90;999.90;;;22.30;97.10;;;;;;5007530;28;20365;-84
2023/08/09 09:27:40;;;;;;;1999.90;999.90;;;22.40;96.60;;;;;;5011246;28;20048;-83
2023/08/09 09:30:13;;;;;;;1999.90;999.90;;;23.30;97.10;;;;;;5001718;28;20045;-82
2023/08/09 09:32:46;;;;;;;1999.90;999.90;;;24.30;95.80;;;;;;4990620;28;20046;-82
2023/08/09 09:35:20;;;;;;;1999.90;999.90;;;24.90;93.90;;;;;;4993412;28;20035;-83
2023/08/09 09:37:47;;;;;;;1999.90;999.90;;;25.10;95.20;;;;;;4974898;28;20038;-82
2023/08/09 09:40:24;;;;;;;1999.90;999.90;;;24.60;94.20;;;;;;4991768;28;20039;-83
2023/08/09 09:42:54;;;;;;;1999.90;999.90;;;24.20;94.80;;;;;;4974499;28;20053;-82
2023/08/09 09:45:23;;;;;;;1999.90;999.90;;;24.80;95.20;;;;;;4975015;28;20049;-83
2023/08/09 09:47:49;;;;;;;1999.90;999.90;;;24.80;95.50;;;;;;4974977;28;20043;-82
2023/08/09 09:50:16;;;;;;;1999.90;999.90;;;24.60;95.30;;;;;;4975506;28;20213;-82
2023/08/09 09:52:42;;;;;;;1999.90;999.90;;;24.10;94.80;;;;;;4976333;28;20110;-84
2023/08/09 09:55:08;;;;;;;1999.90;999.90;;;23.70;96.30;;;;;;4987839;28;20042;-83
2023/08/09 09:57:34;;;;;;;1999.90;999.90;;;23.40;96.30;;;;;;4972077;28;20478;-83
2023/08/09 10:00:06;;;;;;;1999.90;999.90;;;23.10;96.40;;;;;;4972733;28;20161;-83
2023/08/09 10:02:39;;;;;;;1999.90;999.90;;;23.10;96.90;;;;;;4992361;28;20610;-83
2023/08/09 10:05:06;;;;;;;;;;;23.40;96.10;;;;;;4991107;28;20039;-83
2023/08/09 10:07:32;;;;;;;1999.90;999.90;;;23.20;95.90;;;;;;4991935;28;20015;-81
2023/08/09 10:10:02;;;;;;;1999.90;999.90;;;23.10;96.60;;;;;;4990717;28;20060;-83
2023/08/09 10:12:29;;;;;;;1999.90;999.90;;;23.30;97.10;;;;;;4990380;28;20398;-83
2023/08/09 10:14:56;;;;;;;1999.90;999.90;;;23.40;96.80;;;;;;4987572;28;20053;-81
2023/08/09 10:17:23;;;;;;;1999.90;999.90;;;23.40;96.80;;;;;;4992902;28;20038;-82
2023/08/09 10:19:50;;;;;;;1999.90;999.90;;;23.20;96.10;;;;;;5010246;28;20129;-82
2023/08/09 10:22:20;;;;;;;1999.90;999.90;;;22.90;96.50;;;;;;5009954;28;20056;-82
2023/08/09 10:24:50;;;;;;;1999.90;999.90;;;22.30;96.30;;;;;;5010266;28;20123;-82
2023/08/09 10:27:53;;;;;;;1999.90;999.90;;;22.00;96.90;;;;;;5011446;28;20113;-80
2023/08/09 10:30:25;;;;;;;1999.90;999.90;;;21.70;96.30;;;;;;5010366;28;20038;-85
2023/08/09 10:32:58;;;;;;;1999.90;999.90;;;21.80;97.20;;;;;;4996079;28;20034;-84
2023/08/09 10:35:42;;;;;;;;;;;21.80;97.30;;;;;;5011852;28;20763;-82
2023/08/09 10:38:08;;;;;;;1999.90;999.90;;;21.70;97.80;;;;;;4984469;28;19988;-84
2023/08/09 10:40:40;;;;;;;1999.90;999.90;;;21.50;97.70;;;;;;4977766;28;20509;-83
2023/08/09 10:43:06;;;;;;;1999.90;999.90;;;21.50;97.50;;;;;;4982986;28;20337;-85
2023/08/09 10:45:31;;;;;;;1999.90;999.90;;;21.30;97.70;;;;;;5008825;28;20074;-82
2023/08/09 10:48:47;;;;;;;1999.90;999.90;;;21.20;97.40;;;;;;5009611;28;20042;-81
2023/08/09 10:51:13;;;;;;;1999.90;999.90;;;21.20;97.50;;;;;;4932328;29;20058;-80
2023/08/09 10:54:04;;;;;;;1999.90;999.90;;;21.40;98.00;;;;;;4936454;29;20317;-84
2023/08/09 10:56:33;;;;;;;1999.90;999.90;;;21.80;97.80;;;;;;4939062;28;20138;-84
2023/08/09 10:59:08;;;;;;;1999.90;999.90;;;21.90;97.80;;;;;;4975803;28;20057;-84
2023/08/09 11:01:35;;;;;;;1999.90;999.90;;;21.90;98.50;;;;;;4956528;28;20197;-83
2023/08/09 11:04:06;;;;;;;1999.90;999.90;;;21.90;97.50;;;;;;4988425;28;20074;-83
2023/08/09 11:06:43;;;;;;;1999.90;999.90;;;21.80;96.60;;;;;;4956371;28;20129;-84
2023/08/09 11:09:14;;;;;;;1999.90;999.90;;;21.80;96.90;;;;;;4955716;28;20057;-84
2023/08/09 11:11:42;;;;;;;1999.90;999.90;;;21.90;97.10;;;;;;4988976;28;20042;-83
2023/08/09 11:14:09;;;;;;;1999.90;999.90;;;22.10;98.10;;;;;;4971412;28;20042;-83
2023/08/09 11:16:35;;;;;;;1999.90;999.90;;;22.30;97.90;;;;;;4986715;28;20038;-82
2023/08/09 11:19:05;;;;;;;1999.90;999.90;;;22.30;97.80;;;;;;4951360;28;20051;-81
2023/08/09 11:21:44;;;;;;;1999.90;999.90;;;22.20;97.60;;;;;;4940814;28;20505;-82
2023/08/09 11:24:10;;;;;;;1999.90;999.90;;;22.30;98.40;;;;;;4954507;28;20133;-85
2023/08/09 11:26:38;;;;;;;1999.90;999.90;;;22.60;98.40;;;;;;4952742;28;20051;-83
2023/08/09 11:29:05;;;;;;;1999.90;999.90;;;22.90;96.80;;;;;;4997502;28;20049;-84
2023/08/09 11:31:39;;;;;;;1999.90;999.90;;;22.90;96.10;;;;;;5009736;28;20042;-84
2023/08/09 11:34:05;;;;;;;1999.90;999.90;;;22.90;97.20;;;;;;4991326;28;20042;-83
2023/08/09 11:36:32;;;;;;;1999.90;999.90;;;22.70;97.30;;;;;;4991339;28;20416;-81
2023/08/09 11:38:59;;;;;;;1999.90;999.90;;;22.50;97.00;;;;;;5007803;28;20037;-79
2023/08/09 11:41:26;;;;;;;1999.90;999.90;;;22.30;97.60;;;;;;5008174;28;20658;-86
2023/08/09 11:43:52;;;;;;;1999.90;999.90;;;22.40;98.00;;;;;;4994090;28;20046;-83
2023/08/09 11:46:21;;;;;;;1999.90;999.90;;;22.50;97.10;;;;;;5004082;28;20117;-85
2023/08/09 11:48:48;;;;;;;1999.90;999.90;;;22.80;97.80;;;;;;4985257;28;20038;-84
2023/08/09 11:51:17;;;;;;;1999.90;999.90;;;23.10;97.80;;;;;;4969940;28;20046;-84
2023/08/09 11:53:44;;;;;;;1999.90;999.90;;;23.30;98.10;;;;;;4969901;28;20441;-85
2023/08/09 11:56:18;;;;;;;1999.90;999.90;;;23.30;97.30;;;;;;4953171;28;20067;-86
2023/08/09 11:58:46;;;;;;;1999.90;999.90;;;23.40;97.20;;;;;;4953360;28;20078;-83
2023/08/09 12:01:15;;;;;;;1999.90;999.90;;;23.50;97.30;;;;;;4969220;28;20053;-85
2023/08/09 12:03:41;;;;;;;1999.90;999.90;;;23.60;97.30;;;;;;4984417;28;20066;-87
2023/08/09 12:06:07;;;;;;;1999.90;999.90;;;23.60;96.60;;;;;;4973834;28;20073;-81
2023/08/09 12:08:37;;;;;;;1999.90;999.90;;;23.40;97.00;;;;;;4987736;28;20069;-80